Chisholm-hibbing, MN

9:11 AM CDT on September 18, 2014 (GMT -0500)
Chisholm-hibbing | Change Station
CLOSE
Current Station
Airport
Location: Hibbing,
Elevation: 1352 ft
Nearby Weather Stations

Elev 1352 ft 47.39 °N, 92.84 °W | Updated 8 minutes ago

Mostly Cloudy
Mostly Cloudy
45 °F
Feels Like 39 °F
N
12
Wind Variable Wind from SE

Today
High -- | Low -- °F
--% Chance of Precip.
Yesterday
High -- | Low -- °F
Precip. -- in
6:52 AM 7:17 PM
Waning Crescent, 27% visible
Pressure 30.12 in
Visibility 10.0 miles
Clouds Few 1300 ft
Windchill 39 °F
Dew Point 37 °F
Humidity 74%
Rainfall 0.00 in
Snow Depth Not available.
UV 1 out of 12
Pollen 2.10 out of 12
Air Quality Not available.
Flu Activity Not available.
SPECI KHIB 181403Z AUTO 14010KT 10SM FEW013 07/03 A3012 RMK AO2 T00720028

More Conditions Fewer Conditions

Pressure 30.12 in
Visibility 10.0 miles
Clouds Few 1300 ft
Windchill 39 °F
Dew Point 37 °F
Humidity 74%
Rainfall 0.00 in
Snow Depth Not available.
UV 1 out of 12
Pollen 2.10 out of 12
Air Quality Not available.
Flu Activity Not available.
SPECI KHIB 181403Z AUTO 14010KT 10SM FEW013 07/03 A3012 RMK AO2 T00720028

More Conditions Fewer Conditions

10-Day Weather Forecast

Almanac

Astronomy

Sep. 18, 2014 Rise Set
Actual Time 6:52 AM CDT 7:17 PM CDT
Civil Twilight 6:22 AM CDT 7:47 PM CDT
Nautical Twilight 5:45 AM CDT 8:24 PM CDT
Astronomical Twilight 5:07 AM CDT 9:01 PM CDT
Moon 1:29 AM CDT 4:23 PM CDT
Length of Visible Light 13h 25m
Length of Day
12h 24m
Tomorrow will be 3m 23s shorter.
Waning Crescent, 27% of the Moon is Illuminated
Today
Waning Crescent
Sep 24
New
Oct 1
First Quarter
Oct 8
Full
Oct 15
Last Quarter

Today's Extremes

State Highs State Lows

Community

WunderPhotos

Upload Photos

1,754,354 photos uploaded!

Nearby

Snow Depth

Station Depth Elevation
No new snow has been reported.

Earthquake Activity

City Distance Mag. Time & Date
No recent earthquake activity has been reported nearby.
Minimum magnitude displayed is 2.5.

Coastal Water Temperatures

Place Temperature
No Stations Reporting

Nearby Weather Stations